Time;durP1;ratioP1;P1;durP2;ratioP2;P2;SDS_P1;SDS_P2;PMS_P1;PMS_P2;Temp;Humidity;BMP_temperature;BMP_pressure;BME280_temperature;BME280_humidity;BME280_pressure;Samples;Min_cycle;Max_cycle;Signal;HPM_P1;HPM_P2
2021/01/11 00:01:00;;;;;;;23.10;15.53;;;;;;;4.85;100.00;102403.31;1783903;78;26727;-80
2021/01/11 00:03:30;;;;;;;22.73;14.97;;;;;;;4.91;100.00;102401.11;1784076;80;26708;-80
2021/01/11 00:06:00;;;;;;;24.67;16.43;;;;;;;4.91;100.00;102403.02;1783966;80;26209;-81
2021/01/11 00:08:30;;;;;;;25.33;17.23;;;;;;;4.90;100.00;102395.80;1783920;80;26212;-80
2021/01/11 00:11:00;;;;;;;25.90;16.57;;;;;;;4.94;100.00;102401.20;1783886;80;26224;-80
2021/01/11 00:13:29;;;;;;;26.27;17.23;;;;;;;4.95;100.00;102391.89;1783998;80;26237;-80
2021/01/11 00:16:00;;;;;;;25.80;17.47;;;;;;;4.86;100.00;102394.00;1783841;80;26668;-80
2021/01/11 00:18:29;;;;;;;25.97;16.63;;;;;;;4.97;100.00;102393.89;1783982;80;26225;-82
2021/01/11 00:20:59;;;;;;;25.07;15.70;;;;;;;5.01;100.00;102386.37;1783759;80;26236;-81
2021/01/11 00:23:29;;;;;;;27.57;16.27;;;;;;;4.98;100.00;102384.58;1783695;80;26247;-81
2021/01/11 00:25:59;;;;;;;23.77;15.50;;;;;;;4.95;100.00;102380.36;1783660;80;26212;-81
2021/01/11 00:28:30;;;;;;;27.87;16.20;;;;;;;4.93;100.00;102374.20;1783702;80;26224;-81
2021/01/11 00:31:00;;;;;;;25.73;15.90;;;;;;;4.95;100.00;102370.72;1783659;80;26729;-81
2021/01/11 00:33:30;;;;;;;24.97;16.17;;;;;;;4.97;100.00;102375.47;1783681;80;26220;-81
2021/01/11 00:36:00;;;;;;;23.87;16.17;;;;;;;5.05;100.00;102366.14;1783741;80;26221;-80
2021/01/11 00:38:30;;;;;;;24.30;15.50;;;;;;;5.09;100.00;102365.21;1784095;79;26241;-80
2021/01/11 00:41:00;;;;;;;24.47;16.83;;;;;;;5.00;100.00;102368.70;1783995;80;26207;-80
2021/01/11 00:43:30;;;;;;;26.93;17.27;;;;;;;5.00;100.00;102364.58;1783827;80;26209;-80
2021/01/11 00:45:59;;;;;;;23.83;16.50;;;;;;;5.04;100.00;102365.32;1783912;78;26285;-81
2021/01/11 00:48:29;;;;;;;26.77;16.77;;;;;;;4.98;100.00;102357.04;1783851;80;26215;-82
2021/01/11 00:50:59;;;;;;;26.57;16.20;;;;;;;4.93;100.00;102352.69;1783906;80;26242;-80
2021/01/11 00:53:29;;;;;;;26.60;17.27;;;;;;;4.97;100.00;102357.57;1783751;80;26216;-80
2021/01/11 00:55:59;;;;;;;25.60;16.03;;;;;;;5.03;100.00;102351.75;1783794;80;26271;-80
2021/01/11 00:58:28;;;;;;;25.73;16.47;;;;;;;4.97;100.00;102342.42;1783785;80;26232;-81
2021/01/11 01:00:58;;;;;;;26.50;17.30;;;;;;;5.01;100.00;102342.84;1783833;78;26236;-81
2021/01/11 01:03:28;;;;;;;28.43;17.10;;;;;;;5.08;100.00;102338.72;1783910;80;26715;-80
2021/01/11 01:05:58;;;;;;;25.33;16.37;;;;;;;5.13;100.00;102341.70;1783852;80;26794;-81
2021/01/11 01:08:28;;;;;;;27.53;16.80;;;;;;;5.23;100.00;102335.20;1783930;80;26273;-81
2021/01/11 01:10:59;;;;;;;24.77;16.37;;;;;;;5.26;100.00;102334.80;1783843;80;26313;-81
2021/01/11 01:13:28;;;;;;;26.13;17.37;;;;;;;5.25;100.00;102336.70;1783840;80;26282;-81
2021/01/11 01:15:58;;;;;;;26.10;16.17;;;;;;;5.37;100.00;102343.25;1783957;80;26270;-81
2021/01/11 01:18:28;;;;;;;25.37;16.47;;;;;;;5.35;100.00;102338.99;1783797;80;26224;-81
2021/01/11 01:20:58;;;;;;;25.30;16.63;;;;;;;5.38;100.00;102333.93;1783850;80;26707;-81
2021/01/11 01:23:28;;;;;;;24.30;15.63;;;;;;;5.39;100.00;102329.27;1783747;80;26248;-82
2021/01/11 01:25:59;;;;;;;26.13;15.60;;;;;;;5.40;100.00;102328.18;1783738;79;26282;-81
2021/01/11 01:28:29;;;;;;;24.50;15.63;;;;;;;5.50;100.00;102329.97;1783846;80;26668;-81
2021/01/11 01:31:00;;;;;;;22.80;14.87;;;;;;;5.39;100.00;102320.44;1783837;80;26258;-81
2021/01/11 01:33:30;;;;;;;23.00;15.07;;;;;;;5.41;100.00;102320.23;1784020;80;26383;-81
2021/01/11 01:36:00;;;;;;;22.20;14.20;;;;;;;5.46;100.00;102313.03;1784015;80;26236;-81
2021/01/11 01:38:32;;;;;;;23.20;14.50;;;;;;;5.44;100.00;102313.77;1783943;80;26224;-81
2021/01/11 01:41:01;;;;;;;24.13;14.60;;;;;;;5.53;100.00;102308.86;1783897;80;26256;-81
2021/01/11 01:43:31;;;;;;;19.00;13.47;;;;;;;5.57;100.00;102309.27;1783951;79;26242;-81
2021/01/11 01:46:02;;;;;;;21.27;13.67;;;;;;;5.58;100.00;102304.08;1783864;79;26292;-81
2021/01/11 01:48:32;;;;;;;20.17;13.73;;;;;;;5.57;100.00;102305.13;1783947;80;26700;-81
2021/01/11 01:51:02;;;;;;;19.80;12.80;;;;;;;5.52;100.00;102296.14;1784005;80;26290;-81
2021/01/11 01:53:33;;;;;;;17.93;12.53;;;;;;;5.48;100.00;102295.73;1783927;80;26219;-81
2021/01/11 01:56:04;;;;;;;17.97;12.17;;;;;;;5.54;100.00;102295.41;1784021;80;26359;-81
2021/01/11 01:58:35;;;;;;;16.10;11.93;;;;;;;5.54;100.00;102296.78;1783885;80;26276;-81
2021/01/11 02:01:05;;;;;;;18.03;12.07;;;;;;;5.55;100.00;102296.25;1783881;78;26212;-81
2021/01/11 02:03:35;;;;;;;14.57;10.30;;;;;;;5.55;100.00;102294.34;1783944;80;26245;-82
2021/01/11 02:06:05;;;;;;;15.10;11.50;;;;;;;5.58;100.00;102293.91;1783937;80;26222;-82
2021/01/11 02:08:39;;;;;;;14.07;10.33;;;;;;;5.61;100.00;102289.33;1783871;80;26731;-80
2021/01/11 02:11:16;;;;;;;15.17;10.53;;;;;;;5.62;100.00;102288.80;1783836;80;26717;-82
2021/01/11 02:13:57;;;;;;;14.80;11.17;;;;;;;5.63;100.00;102298.77;1784002;80;26245;-81
2021/01/11 02:16:31;;;;;;;15.37;10.37;;;;;;;5.61;100.00;102302.26;1783853;80;26370;-81
2021/01/11 02:19:07;;;;;;;14.70;10.73;;;;;;;5.67;100.00;102305.01;1783751;80;26620;-84
2021/01/11 02:22:03;;;;;;;14.73;10.27;;;;;;;5.70;100.00;102296.82;1783756;80;26722;-82
2021/01/11 02:24:47;;;;;;;15.73;10.60;;;;;;;5.68;100.00;102296.21;1782717;80;26755;-81
2021/01/11 02:27:32;;;;;;;15.53;10.70;;;;;;;5.70;100.00;102298.20;1783516;80;26735;-80
2021/01/11 02:30:06;;;;;;;15.20;11.17;;;;;;;5.65;100.00;102292.52;1784024;80;26238;-79
2021/01/11 02:32:40;;;;;;;17.47;10.90;;;;;;;5.65;100.00;102298.03;1784218;80;26210;-80
2021/01/11 02:35:13;;;;;;;16.47;10.53;;;;;;;5.73;100.00;102285.38;1783918;79;26358;-79
2021/01/11 02:37:44;;;;;;;17.30;11.20;;;;;;;5.77;100.00;102288.02;1784011;80;26357;-79
2021/01/11 02:40:14;;;;;;;14.43;11.13;;;;;;;5.70;100.00;102295.45;1783803;80;26220;-80
2021/01/11 02:42:44;;;;;;;15.77;11.43;;;;;;;5.77;100.00;102295.76;1783905;80;26245;-80
2021/01/11 02:45:15;;;;;;;17.27;13.07;;;;;;;5.71;100.00;102297.99;1783899;80;26266;-80
2021/01/11 02:47:50;;;;;;;17.90;12.30;;;;;;;5.68;100.00;102292.92;1783794;79;26325;-80
2021/01/11 02:50:25;;;;;;;19.33;12.03;;;;;;;5.72;100.00;102298.31;1784123;80;26711;-81
2021/01/11 02:53:06;;;;;;;16.77;12.57;;;;;;;5.71;100.00;102290.25;1783794;80;26220;-81
2021/01/11 02:55:43;;;;;;;16.60;12.07;;;;;;;5.83;100.00;102290.73;1783717;80;26720;-81
2021/01/11 02:58:16;;;;;;;14.43;10.17;;;;;;;5.83;100.00;102280.23;1783970;80;26737;-81
2021/01/11 03:00:49;;;;;;;14.70;10.07;;;;;;;5.81;100.00;102276.33;1783571;80;26224;-80
2021/01/11 03:03:21;;;;;;;13.67;10.10;;;;;;;5.87;100.00;102276.00;1783786;79;26692;-81
2021/01/11 03:05:53;;;;;;;14.37;10.00;;;;;;;5.89;100.00;102276.64;1783673;80;26228;-80
2021/01/11 03:08:25;;;;;;;12.37;9.67;;;;;;;5.92;100.00;102276.19;1783684;80;26216;-81
2021/01/11 03:10:54;;;;;;;13.17;9.73;;;;;;;6.01;100.00;102268.51;1783846;80;26335;-81
2021/01/11 03:13:24;;;;;;;13.47;9.90;;;;;;;5.99;100.00;102270.09;1783749;80;26274;-81
2021/01/11 03:15:54;;;;;;;12.03;9.10;;;;;;;6.00;100.00;102268.19;1783759;80;26667;-81
2021/01/11 03:18:24;;;;;;;12.13;9.30;;;;;;;5.96;100.00;102262.27;1783763;80;26351;-81
2021/01/11 03:20:54;;;;;;;12.87;9.27;;;;;;;6.04;100.00;102260.63;1783762;80;26252;-82
2021/01/11 03:23:24;;;;;;;14.40;8.83;;;;;;;6.04;100.00;102262.55;1783653;80;26248;-83
2021/01/11 03:25:54;;;;;;;14.00;9.43;;;;;;;6.02;100.00;102255.89;1783819;80;26208;-81
2021/01/11 03:28:23;;;;;;;13.07;9.33;;;;;;;6.04;100.00;102251.51;1783763;80;26244;-81
2021/01/11 03:30:53;;;;;;;13.93;9.70;;;;;;;6.13;100.00;102246.05;1783773;80;26237;-80
2021/01/11 03:33:23;;;;;;;13.20;9.40;;;;;;;6.01;100.00;102239.02;1783967;80;26273;-81
2021/01/11 03:35:53;;;;;;;12.63;9.83;;;;;;;6.10;100.00;102239.07;1783671;80;26212;-81
2021/01/11 03:38:23;;;;;;;14.80;8.80;;;;;;;6.05;100.00;102228.38;1783724;80;26236;-82
2021/01/11 03:41:00;;;;;;;12.43;9.77;;;;;;;6.14;100.00;102232.04;1783822;80;26326;-84
2021/01/11 03:43:30;;;;;;;13.23;9.17;;;;;;;6.07;100.00;102229.02;1783790;80;26248;-83
2021/01/11 03:46:00;;;;;;;12.50;8.97;;;;;;;6.02;100.00;102219.18;1783800;79;26719;-83
2021/01/11 03:48:30;;;;;;;10.80;9.00;;;;;;;6.04;100.00;102229.44;1783624;78;26373;-83
2021/01/11 03:51:00;;;;;;;11.30;8.90;;;;;;;6.19;100.00;102220.34;1783598;80;26256;-82
2021/01/11 03:53:31;;;;;;;11.33;8.73;;;;;;;6.06;100.00;102208.86;1783659;80;26290;-81
2021/01/11 03:56:02;;;;;;;12.77;9.30;;;;;;;6.13;100.00;102202.76;1783714;80;26240;-82
2021/01/11 03:58:32;;;;;;;12.17;9.93;;;;;;;6.07;100.00;102200.91;1783704;80;26704;-82
2021/01/11 04:01:02;;;;;;;12.67;9.20;;;;;;;6.10;100.00;102201.83;1783718;80;26232;-82
2021/01/11 04:03:33;;;;;;;12.07;9.80;;;;;;;6.08;100.00;102203.95;1783822;78;26232;-84
2021/01/11 04:06:03;;;;;;;12.87;9.37;;;;;;;6.17;100.00;102206.75;1783721;80;26739;-83
2021/01/11 04:08:33;;;;;;;13.40;9.63;;;;;;;6.22;100.00;102193.67;1783654;80;26232;-83
2021/01/11 04:11:03;;;;;;;11.77;8.80;;;;;;;6.18;100.00;102194.66;1783684;80;26306;-83
2021/01/11 04:13:33;;;;;;;11.07;8.93;;;;;;;6.19;100.00;102190.84;1783708;80;26224;-83
2021/01/11 04:16:03;;;;;;;10.57;8.23;;;;;;;6.19;100.00;102188.08;1783790;80;26274;-83
2021/01/11 04:18:33;;;;;;;14.97;8.90;;;;;;;6.16;100.00;102182.98;1783692;80;26236;-82
2021/01/11 04:21:03;;;;;;;11.83;9.27;;;;;;;6.13;100.00;102183.45;1783727;80;26293;-82
2021/01/11 04:23:33;;;;;;;14.13;8.60;;;;;;;6.17;100.00;102183.30;1783709;80;26252;-83
2021/01/11 04:26:03;;;;;;;10.70;8.90;;;;;;;6.14;100.00;102181.53;1783770;80;26322;-83
2021/01/11 04:28:33;;;;;;;12.47;9.07;;;;;;;6.15;100.00;102177.19;1783653;80;26266;-83
2021/01/11 04:31:02;;;;;;;10.87;9.07;;;;;;;6.20;100.00;102178.75;1783726;80;26220;-84
2021/01/11 04:33:32;;;;;;;11.80;8.93;;;;;;;6.19;100.00;102172.91;1783738;80;26201;-83
2021/01/11 04:36:03;;;;;;;14.23;8.93;;;;;;;6.26;100.00;102174.22;1783677;80;26676;-84
2021/01/11 04:38:34;;;;;;;9.83;8.50;;;;;;;6.19;100.00;102167.39;1783716;80;26216;-84
2021/01/11 04:41:05;;;;;;;11.40;8.23;;;;;;;6.19;100.00;102164.63;1783753;80;26244;-83
2021/01/11 04:43:38;;;;;;;11.50;8.97;;;;;;;6.22;100.00;102166.08;1783697;80;26232;-81
2021/01/11 04:46:08;;;;;;;11.13;8.70;;;;;;;6.27;100.00;102162.13;1783954;80;26652;-81
2021/01/11 04:48:38;;;;;;;11.57;8.10;;;;;;;6.26;100.00;102164.56;1783712;78;26346;-81
2021/01/11 04:51:08;;;;;;;11.87;8.97;;;;;;;6.25;100.00;102158.20;1783659;79;26644;-81
2021/01/11 04:53:42;;;;;;;9.90;8.13;;;;;;;6.25;100.00;102158.20;1783723;79;26411;-80
2021/01/11 04:56:12;;;;;;;10.30;8.07;;;;;;;6.21;100.00;102158.34;1783728;80;26334;-82
2021/01/11 04:58:55;;;;;;;11.47;8.40;;;;;;;6.21;100.00;102161.09;1783744;80;26264;-82
2021/01/11 05:01:27;;;;;;;10.43;8.60;;;;;;;6.21;100.00;102154.73;1772198;79;932696;-81
2021/01/11 05:04:00;;;;;;;9.83;7.43;;;;;;;6.26;100.00;102145.25;1783607;79;26318;-82
2021/01/11 05:06:31;;;;;;;8.80;7.53;;;;;;;6.25;100.00;102152.68;1783713;80;26295;-81
2021/01/11 05:09:08;;;;;;;9.23;7.90;;;;;;;6.24;100.00;102151.55;1783655;80;26313;-81
2021/01/11 05:11:38;;;;;;;9.30;7.93;;;;;;;6.25;100.00;102147.16;1783678;80;26216;-81
2021/01/11 05:14:08;;;;;;;7.50;6.63;;;;;;;6.31;100.00;102136.61;1783645;80;26209;-82
2021/01/11 05:16:38;;;;;;;9.40;7.47;;;;;;;6.28;100.00;102138.98;1783626;80;26208;-81
2021/01/11 05:19:25;;;;;;;9.20;7.10;;;;;;;6.32;100.00;102127.27;1783547;80;26216;-81
2021/01/11 05:21:55;;;;;;;9.13;7.40;;;;;;;6.27;100.00;102124.34;1783652;80;26271;-82
2021/01/11 05:24:33;;;;;;;8.87;7.23;;;;;;;6.32;100.00;102129.19;1783690;80;26255;-81
2021/01/11 05:27:06;;;;;;;7.07;5.97;;;;;;;6.34;100.00;102130.63;1783643;80;26221;-82
2021/01/11 05:29:37;;;;;;;7.27;6.53;;;;;;;6.47;100.00;102123.30;1783761;80;26220;-80
2021/01/11 05:32:09;;;;;;;6.67;6.07;;;;;;;6.47;100.00;102124.67;1783744;80;26676;-81
2021/01/11 05:34:49;;;;;;;7.90;5.57;;;;;;;6.46;100.00;102116.11;1783634;80;26706;-81
2021/01/11 05:37:36;;;;;;;6.60;6.00;;;;;;;6.43;100.00;102114.63;1783730;80;26758;-81
2021/01/11 05:40:12;;;;;;;7.07;6.13;;;;;;;6.37;100.00;102108.09;1783731;80;26683;-81
2021/01/11 05:42:44;;;;;;;6.17;5.57;;;;;;;6.35;100.00;102114.92;1783647;80;26205;-81
2021/01/11 05:45:18;;;;;;;6.47;5.67;;;;;;;6.37;100.00;102110.04;1783967;78;26224;-82
2021/01/11 05:48:04;;;;;;;6.23;5.63;;;;;;;6.25;100.00;102100.78;1783828;80;26420;-82
2021/01/11 05:50:40;;;;;;;6.60;5.90;;;;;;;6.26;100.00;102099.72;1783804;80;26220;-82
2021/01/11 05:53:18;;;;;;;6.30;5.67;;;;;;;6.29;100.00;102099.30;1783770;80;26302;-81
2021/01/11 05:55:50;;;;;;;7.23;6.40;;;;;;;6.22;100.00;102094.34;1783823;80;26338;-79
2021/01/11 05:58:21;;;;;;;6.90;5.67;;;;;;;6.25;100.00;102092.51;1783669;80;26659;-80
2021/01/11 06:00:52;;;;;;;7.27;4.93;;;;;;;6.25;100.00;102085.61;1783782;80;26702;-81
2021/01/11 06:03:24;;;;;;;6.73;5.00;;;;;;;6.14;100.00;102080.84;1783836;80;26307;-82
2021/01/11 06:05:55;;;;;;;5.67;5.13;;;;;;;6.06;100.00;102086.12;1783880;78;26368;-80
2021/01/11 06:08:25;;;;;;;5.83;5.30;;;;;;;6.11;100.00;102084.91;1783739;79;26731;-80
2021/01/11 06:10:56;;;;;;;6.47;5.07;;;;;;;6.00;100.00;102080.11;1783890;80;26789;-82
2021/01/11 06:13:26;;;;;;;7.00;6.00;;;;;;;6.02;100.00;102082.66;1783756;80;26216;-82
2021/01/11 06:15:58;;;;;;;6.73;5.70;;;;;;;5.98;100.00;102081.42;1783900;80;26782;-81
2021/01/11 06:18:28;;;;;;;5.87;5.27;;;;;;;5.90;100.00;102068.76;1783964;80;26340;-81
2021/01/11 06:20:58;;;;;;;6.57;5.93;;;;;;;5.99;100.00;102067.37;1783847;80;26251;-81
2021/01/11 06:23:28;;;;;;;7.17;5.70;;;;;;;6.06;100.00;102076.46;1784049;80;26310;-82
2021/01/11 06:25:58;;;;;;;5.67;5.07;;;;;;;5.95;100.00;102073.04;1783993;79;26219;-82
2021/01/11 06:28:33;;;;;;;5.27;4.77;;;;;;;6.06;100.00;102067.34;1783882;80;26219;-82
2021/01/11 06:31:13;;;;;;;5.90;5.20;;;;;;;6.02;100.00;102067.48;1783811;79;26207;-82
2021/01/11 06:33:43;;;;;;;6.87;4.90;;;;;;;6.00;100.00;102059.95;1783986;79;26241;-82
2021/01/11 06:36:22;;;;;;;5.23;4.73;;;;;;;6.01;100.00;102058.89;1783902;80;26228;-83
2021/01/11 06:38:53;;;;;;;5.63;4.20;;;;;;;6.00;100.00;102055.81;1783882;80;26766;-83
2021/01/11 06:41:25;;;;;;;6.07;4.30;;;;;;;6.09;100.00;102055.31;1783884;80;26236;-81
2021/01/11 06:43:57;;;;;;;4.93;4.40;;;;;;;5.98;100.00;102056.59;1784094;79;26354;-82
2021/01/11 06:46:46;;;;;;;4.33;3.93;;;;;;;6.10;100.00;102058.39;1784751;78;26228;-81
2021/01/11 06:49:27;;;;;;;4.37;3.83;;;;;;;6.11;100.00;102057.33;1783732;79;26724;-83
2021/01/11 06:52:09;;;;;;;4.93;3.43;;;;;;;6.27;100.00;102059.50;1783849;80;26323;-83
2021/01/11 06:54:43;;;;;;;4.17;3.53;;;;;;;6.27;100.00;102063.64;1783845;80;26286;-82
2021/01/11 06:57:19;;;;;;;4.07;3.17;;;;;;;6.21;100.00;102063.15;1783896;80;26241;-81
2021/01/11 06:59:51;;;;;;;3.70;3.30;;;;;;;6.21;100.00;102067.29;1783906;80;26719;-82
2021/01/11 07:02:26;;;;;;;3.30;2.80;;;;;;;6.31;100.00;102064.87;1784218;80;26616;-81
2021/01/11 07:04:56;;;;;;;4.27;2.77;;;;;;;6.31;100.00;102067.63;1783841;78;26338;-81
2021/01/11 07:07:26;;;;;;;3.07;2.73;;;;;;;6.29;100.00;102064.23;1783839;80;26245;-81
2021/01/11 07:09:58;;;;;;;3.70;2.93;;;;;;;6.32;100.00;102065.72;1784079;80;26329;-82
2021/01/11 07:12:29;;;;;;;2.40;2.20;;;;;;;6.25;100.00;102063.53;1783910;80;26299;-82
2021/01/11 07:15:04;;;;;;;2.37;2.10;;;;;;;6.36;100.00;102049.86;1783859;80;26224;-81
2021/01/11 07:17:41;;;;;;;3.43;2.20;;;;;;;6.39;100.00;102038.89;1783871;79;26660;-82
2021/01/11 07:20:14;;;;;;;3.27;1.90;;;;;;;6.44;100.00;102047.86;1784023;80;26287;-84
2021/01/11 07:22:47;;;;;;;2.93;1.80;;;;;;;6.50;100.00;102046.95;1783937;80;26310;-84
2021/01/11 07:25:23;;;;;;;2.50;2.10;;;;;;;6.55;100.00;102049.84;1784148;80;26263;-84
2021/01/11 07:27:59;;;;;;;2.03;1.70;;;;;;;6.54;100.00;102042.66;1783908;80;26259;-84
2021/01/11 07:30:35;;;;;;;3.57;1.90;;;;;;;6.54;100.00;102046.27;1784027;80;26332;-82
2021/01/11 07:33:12;;;;;;;1.90;1.60;;;;;;;6.52;100.00;102045.64;1784322;79;26271;-84
2021/01/11 07:35:42;;;;;;;2.47;1.90;;;;;;;6.56;100.00;102051.55;1783993;80;26304;-80
2021/01/11 07:38:13;;;;;;;3.27;1.83;;;;;;;6.55;100.00;102044.33;1783822;80;26738;-80
2021/01/11 07:40:44;;;;;;;2.03;1.73;;;;;;;6.55;100.00;102044.33;1783767;80;26287;-82
2021/01/11 07:43:24;;;;;;;2.27;1.70;;;;;;;6.58;100.00;102036.45;1783783;80;26244;-81
2021/01/11 07:46:04;;;;;;;2.70;1.30;;;;;;;6.61;100.00;102045.65;1783729;80;26217;-81
2021/01/11 07:48:34;;;;;;;1.40;1.30;;;;;;;6.65;100.00;102045.50;1783796;80;26237;-81
2021/01/11 07:51:10;;;;;;;2.57;1.40;;;;;;;6.73;100.00;102045.72;1783610;79;26726;-81
2021/01/11 07:53:40;;;;;;;2.83;1.57;;;;;;;6.73;100.00;102044.34;1783669;80;26211;-81
2021/01/11 07:56:11;;;;;;;2.83;1.80;;;;;;;6.77;100.00;102044.18;1783715;80;26216;-82
2021/01/11 07:58:43;;;;;;;3.03;1.50;;;;;;;6.81;100.00;102044.87;1783801;80;26248;-82
2021/01/11 08:01:15;;;;;;;2.43;1.60;;;;;;;6.89;100.00;102042.33;1785701;78;26694;-82
2021/01/11 08:03:44;;;;;;;2.43;1.60;;;;;;;6.89;100.00;102050.61;1783941;80;26204;-82
2021/01/11 08:06:14;;;;;;;2.30;1.77;;;;;;;6.86;100.00;102036.73;1783696;79;26236;-83
2021/01/11 08:08:47;;;;;;;1.53;1.40;;;;;;;6.88;100.00;102032.38;1783701;80;26785;-80
2021/01/11 08:11:20;;;;;;;2.00;1.60;;;;;;;6.91;100.00;102030.52;1783853;80;26253;-82
2021/01/11 08:13:50;;;;;;;1.50;1.40;;;;;;;6.96;100.00;102027.91;1783741;80;26216;-81
2021/01/11 08:16:21;;;;;;;3.43;1.40;;;;;;;6.95;100.00;102028.98;1783845;80;26222;-80
2021/01/11 08:18:53;;;;;;;4.20;1.73;;;;;;;6.95;100.00;102040.56;1783688;80;26212;-81
2021/01/11 08:21:23;;;;;;;2.50;1.53;;;;;;;6.98;100.00;102026.27;1783929;80;26263;-81
2021/01/11 08:24:00;;;;;;;3.23;1.50;;;;;;;6.98;100.00;102022.98;1783922;80;26312;-80
2021/01/11 08:26:32;;;;;;;2.23;1.67;;;;;;;6.97;100.00;102024.08;1783961;80;26678;-81
2021/01/11 08:29:02;;;;;;;4.17;1.87;;;;;;;6.97;100.00;102025.99;1783903;80;26213;-82
2021/01/11 08:31:35;;;;;;;4.67;2.80;;;;;;;6.98;100.00;102026.27;1783844;80;26228;-84
2021/01/11 08:34:06;;;;;;;5.53;2.07;;;;;;;7.00;100.00;102023.60;1783853;80;26286;-80
2021/01/11 08:36:36;;;;;;;3.40;2.27;;;;;;;6.96;100.00;102027.06;1783886;80;26660;-86
2021/01/11 08:39:24;;;;;;;4.60;2.40;;;;;;;7.00;100.00;102029.13;1783932;79;26220;-80
2021/01/11 08:41:56;;;;;;;2.50;1.93;;;;;;;6.96;100.00;102022.92;1783827;80;26280;-80
2021/01/11 08:44:28;;;;;;;6.60;4.90;;;;;;;6.93;100.00;102028.92;1783887;80;26220;-84
2021/01/11 08:47:07;;;;;;;5.27;2.50;;;;;;;6.90;100.00;102034.35;1783921;79;26256;-85
2021/01/11 08:49:56;;;;;;;3.13;2.23;;;;;;;6.99;100.00;102027.44;1783795;79;26711;-82
2021/01/11 08:52:33;;;;;;;4.67;2.00;;;;;;;6.99;100.00;102027.97;1783777;78;26308;-83
2021/01/11 08:55:11;;;;;;;4.80;2.03;;;;;;;7.01;100.00;102029.44;1784053;80;26813;-86
2021/01/11 08:57:44;;;;;;;3.60;1.90;;;;;;;7.07;100.00;102025.73;1783812;80;26339;-85
2021/01/11 09:00:16;;;;;;;3.87;1.70;;;;;;;7.02;100.00;102030.26;1786332;78;26347;-84
2021/01/11 09:02:47;;;;;;;2.80;1.63;;;;;;;7.07;100.00;102039.55;1783787;80;26357;-84
2021/01/11 09:05:22;;;;;;;3.30;1.97;;;;;;;7.13;100.00;102044.14;1783840;80;26262;-85
2021/01/11 09:07:52;;;;;;;2.07;1.87;;;;;;;7.12;100.00;102041.08;1783798;78;26253;-86
2021/01/11 09:10:24;;;;;;;2.77;1.50;;;;;;;7.19;100.00;102035.44;1783984;80;26821;-85
2021/01/11 09:12:55;;;;;;;2.53;1.57;;;;;;;7.17;100.00;102028.78;1784003;80;26306;-85
2021/01/11 09:15:34;;;;;;;3.93;1.57;;;;;;;7.13;100.00;102029.48;1783683;79;26213;-78
2021/01/11 09:18:05;;;;;;;2.90;1.60;;;;;;;7.17;100.00;102029.33;1783720;80;26683;-84
2021/01/11 09:20:42;;;;;;;2.53;1.50;;;;;;;7.17;100.00;102028.78;1783636;80;26228;-86
2021/01/11 09:23:15;;;;;;;2.67;1.60;;;;;;;7.19;100.00;102034.06;1783780;80;26283;-85
2021/01/11 09:25:49;;;;;;;5.20;1.70;;;;;;;7.20;100.00;102040.74;1783862;80;26321;-86
2021/01/11 09:28:17;;;;;;;7.90;1.73;;;;;;;7.23;100.00;102031.16;1784234;78;26652;-85
2021/01/11 09:30:50;;;;;;;3.67;1.77;;;;;;;7.32;100.00;102032.48;1783960;80;26671;-84
2021/01/11 09:33:19;;;;;;;3.30;1.47;;;;;;;7.35;100.00;102027.05;1784122;79;26692;-85
2021/01/11 09:36:12;;;;;;;3.43;1.10;;;;;;;7.39;100.00;102023.58;1784485;80;26248;-84
2021/01/11 09:38:41;;;;;;;2.93;1.40;;;;;;;7.46;100.00;102018.78;1774168;80;26252;-85
2021/01/11 09:41:12;;;;;;;3.87;1.40;;;;;;;7.58;100.00;102019.66;1784159;80;26291;-81
2021/01/11 09:43:42;;;;;;;2.00;1.20;;;;;;;7.58;100.00;102022.95;1783644;80;26709;-82
2021/01/11 09:46:12;;;;;;;1.97;1.27;;;;;;;7.62;100.00;102009.80;1783898;80;26342;-82
2021/01/11 09:48:43;;;;;;;3.00;1.53;;;;;;;7.71;100.00;102013.91;1783767;80;26286;-82
2021/01/11 09:51:13;;;;;;;4.47;1.50;;;;;;;7.74;100.00;102013.99;1784391;78;26348;-82
2021/01/11 09:53:43;;;;;;;4.07;1.00;;;;;;;7.84;100.00;102007.31;1783912;80;26256;-82
2021/01/11 09:56:16;;;;;;;4.53;1.30;;;;;;;7.90;100.00;102013.28;1783963;80;26237;-83
2021/01/11 09:58:47;;;;;;;5.73;1.33;;;;;;;7.97;100.00;102003.47;1784759;78;26324;-82
2021/01/11 10:01:17;;;;;;;3.43;1.17;;;;;;;8.08;100.00;102006.27;1784019;80;26205;-82
2021/01/11 10:03:49;;;;;;;2.67;0.90;;;;;;;8.19;100.00;102009.56;1784131;80;26228;-81
2021/01/11 10:06:19;;;;;;;3.77;1.63;;;;;;;8.24;100.00;102001.38;1784159;80;26253;-82
2021/01/11 10:08:49;;;;;;;4.53;1.20;;;;;;;8.27;100.00;102004.19;1783866;78;26240;-82
2021/01/11 10:11:19;;;;;;;3.07;1.30;;;;;;;8.31;100.00;101999.04;1784106;80;26676;-81
2021/01/11 10:13:49;;;;;;;3.17;1.47;;;;;;;8.36;100.00;102004.70;1784020;80;26278;-81
2021/01/11 10:16:19;;;;;;;3.20;1.33;;;;;;;8.33;100.00;101999.12;1783959;80;26667;-81
2021/01/11 10:18:52;;;;;;;3.07;1.30;;;;;;;8.33;100.00;101996.89;1783954;80;26224;-81
2021/01/11 10:21:22;;;;;;;4.17;1.30;;;;;;;8.35;100.00;101988.63;1784187;80;26212;-82
2021/01/11 10:23:52;;;;;;;5.47;1.37;;;;;;;8.40;100.00;102003.13;1783844;80;26247;-81
2021/01/11 10:26:23;;;;;;;5.00;1.30;;;;;;;8.36;100.00;102001.93;1784093;80;26400;-80
2021/01/11 10:28:55;;;;;;;5.90;1.70;;;;;;;8.31;100.00;101999.89;1784023;80;26681;-81
2021/01/11 10:31:25;;;;;;;6.03;1.93;;;;;;;8.28;100.00;102000.34;1783867;80;26255;-81
2021/01/11 10:33:55;;;;;;;7.50;1.63;;;;;;;8.32;100.00;101981.35;1784028;80;26273;-80
2021/01/11 10:36:26;;;;;;;2.87;1.63;;;;;;;8.32;100.00;101981.35;1784149;80;26228;-81
2021/01/11 10:38:57;;;;;;;3.13;1.10;;;;;;;8.37;100.00;101981.47;1783986;80;26347;-81
2021/01/11 10:41:27;;;;;;;3.80;1.20;;;;;;;8.36;100.00;101977.02;1784086;79;26232;-78
2021/01/11 10:43:57;;;;;;;5.97;1.80;;;;;;;8.35;100.00;101976.17;1783873;80;26465;-79
2021/01/11 10:46:27;;;;;;;4.43;1.53;;;;;;;8.43;100.00;101977.75;1783870;80;26732;-80
2021/01/11 10:48:57;;;;;;;3.33;1.50;;;;;;;8.40;100.00;101978.20;1784020;79;26798;-79
2021/01/11 10:51:32;;;;;;;4.43;1.90;;;;;;;8.43;100.00;101979.94;1783903;79;26235;-79
2021/01/11 10:54:00;;;;;;;6.40;1.60;;;;;;;8.38;100.00;101978.47;1784242;78;26263;-81
2021/01/11 10:56:30;;;;;;;4.70;1.67;;;;;;;8.36;100.00;101975.63;1783959;80;26290;-79
2021/01/11 10:59:00;;;;;;;2.57;1.70;;;;;;;8.38;100.00;101967.94;1783914;80;26212;-81
2021/01/11 11:01:30;;;;;;;5.13;2.30;;;;;;;8.47;100.00;101961.75;1783818;80;26216;-80
2021/01/11 11:04:00;;;;;;;3.63;1.87;;;;;;;8.47;100.00;101951.25;1783779;80;26220;-81
2021/01/11 11:06:30;;;;;;;6.10;2.10;;;;;;;8.50;100.00;101948.83;1783923;79;26228;-81
2021/01/11 11:09:00;;;;;;;4.90;2.37;;;;;;;8.53;100.00;101947.48;1783867;78;26232;-80
2021/01/11 11:11:33;;;;;;;6.73;2.43;;;;;;;8.62;100.00;101948.78;1783865;80;26696;-83
2021/01/11 11:14:03;;;;;;;6.47;2.43;;;;;;;8.63;100.00;101949.94;1783792;80;26227;-80
2021/01/11 11:16:35;;;;;;;2.87;1.50;;;;;;;8.61;100.00;101944.33;1783944;80;26315;-81
2021/01/11 11:19:05;;;;;;;6.17;2.00;;;;;;;8.55;100.00;101939.78;1783835;79;26294;-80
2021/01/11 11:21:34;;;;;;;3.10;1.53;;;;;;;8.58;100.00;101936.52;1784001;80;26216;-81
2021/01/11 11:24:06;;;;;;;5.53;1.80;;;;;;;8.62;100.00;101934.39;1783902;80;26260;-80
2021/01/11 11:26:36;;;;;;;5.30;1.73;;;;;;;8.66;100.00;101927.28;1784016;80;26220;-82
2021/01/11 11:29:06;;;;;;;3.80;1.30;;;;;;;8.69;100.00;101923.16;1784223;80;26687;-81
2021/01/11 11:31:40;;;;;;;4.83;1.53;;;;;;;8.67;100.00;101911.50;1783914;80;26690;-80
2021/01/11 11:34:10;;;;;;;2.80;1.20;;;;;;;8.73;100.00;101909.11;1784039;80;26220;-82
2021/01/11 11:36:40;;;;;;;5.93;1.10;;;;;;;8.78;100.00;101902.83;1783990;80;26315;-81
2021/01/11 11:39:10;;;;;;;3.13;1.27;;;;;;;8.85;100.00;101904.39;1783947;80;26224;-81
2021/01/11 11:41:41;;;;;;;4.10;1.00;;;;;;;8.87;100.00;101896.65;1784038;80;26248;-81